createdAt,value
2023-04-14T00:00:52.619Z,96496.52
2023-04-14T00:03:21.029Z,96494.70
2023-04-14T00:05:49.044Z,96495.11
2023-04-14T00:08:18.141Z,96490.25
2023-04-14T00:10:46.019Z,96488.91
2023-04-14T00:13:13.870Z,96490.82
2023-04-14T00:15:42.033Z,96486.26
2023-04-14T00:18:10.620Z,96485.55
2023-04-14T00:20:38.720Z,96477.39
2023-04-14T00:23:06.277Z,96484.69
2023-04-14T00:25:34.077Z,96486.19
2023-04-14T00:28:03.180Z,96485.09
2023-04-14T00:30:31.224Z,96484.45
2023-04-14T00:32:59.198Z,96492.00
2023-04-14T00:35:27.271Z,96478.11
2023-04-14T00:37:58.280Z,96479.13
2023-04-14T00:40:26.448Z,96476.94
2023-04-14T00:42:54.249Z,96473.09
2023-04-14T00:45:22.196Z,96466.58
2023-04-14T00:47:50.225Z,96466.51
2023-04-14T00:50:19.633Z,96466.11
2023-04-14T00:52:50.003Z,96463.34
2023-04-14T00:55:20.902Z,96465.94
2023-04-14T00:57:49.912Z,96462.41
2023-04-14T01:00:19.180Z,96453.78
2023-04-14T01:02:47.081Z,96454.01
2023-04-14T01:05:15.430Z,96455.83
2023-04-14T01:07:44.170Z,96458.39
2023-04-14T01:10:12.190Z,96448.64
2023-04-14T01:13:08.052Z,96446.68
2023-04-14T01:15:52.774Z,96452.17
2023-04-14T01:18:44.275Z,96444.42
2023-04-14T01:21:19.999Z,96444.42
2023-04-14T01:24:06.255Z,96442.67
2023-04-14T01:26:34.576Z,96447.46
2023-04-14T01:29:26.628Z,96440.16
2023-04-14T01:32:11.275Z,96446.42
2023-04-14T01:34:56.201Z,96449.98
2023-04-14T01:37:33.877Z,96452.95
2023-04-14T01:40:07.642Z,96460.51
2023-04-14T01:42:38.111Z,96460.80
2023-04-14T01:45:19.776Z,96463.80
2023-04-14T01:47:48.709Z,96461.47
2023-04-14T01:50:19.893Z,96460.43
2023-04-14T01:52:52.417Z,96463.42
2023-04-14T01:55:21.260Z,96464.84
2023-04-14T01:57:52.369Z,96470.40
2023-04-14T02:00:21.430Z,96471.98
2023-04-14T02:02:51.778Z,96470.40
2023-04-14T02:05:21.952Z,96476.77
2023-04-14T02:07:53.287Z,96474.88
2023-04-14T02:10:23.522Z,96467.10
2023-04-14T02:12:54.990Z,96457.69
2023-04-14T02:15:25.448Z,96456.02
2023-04-14T02:17:55.657Z,96442.05
2023-04-14T02:20:23.758Z,96428.93
2023-04-14T02:22:51.468Z,96437.64
2023-04-14T02:25:22.442Z,96437.09
2023-04-14T02:27:58.235Z,96434.41
2023-04-14T02:30:32.251Z,96441.56
2023-04-14T02:33:10.346Z,96435.45
2023-04-14T02:35:58.140Z,96427.22
2023-04-14T02:38:57.911Z,96429.00
2023-04-14T02:41:29.553Z,96431.67
2023-04-14T02:44:21.436Z,96431.67
2023-04-14T02:46:57.557Z,96428.45
2023-04-14T02:49:26.718Z,96424.77
2023-04-14T02:51:57.595Z,96430.11
2023-04-14T02:54:25.976Z,96426.66
2023-04-14T02:56:56.730Z,96426.66
2023-04-14T02:59:26.909Z,96426.66
2023-04-14T03:01:59.119Z,96433.89
2023-04-14T03:04:29.569Z,96430.11
2023-04-14T03:06:59.086Z,96430.11
2023-04-14T03:09:29.601Z,96423.99
2023-04-14T03:11:59.010Z,96419.73
2023-04-14T03:14:28.001Z,96414.72
2023-04-14T03:16:57.060Z,96422.51
2023-04-14T03:19:28.036Z,96426.73
2023-04-14T03:21:59.733Z,96415.28
2023-04-14T03:24:31.258Z,96413.88
2023-04-14T03:27:09.386Z,96407.42
2023-04-14T03:29:46.012Z,96406.86
2023-04-14T03:32:17.571Z,96418.02
2023-04-14T03:34:49.964Z,96412.91
2023-04-14T03:37:24.630Z,96410.16
2023-04-14T03:39:53.960Z,96410.05
2023-04-14T03:42:25.440Z,96409.19
2023-04-14T03:44:55.838Z,96401.11
2023-04-14T03:47:24.416Z,96380.65
2023-04-14T03:49:57.186Z,96406.03
2023-04-14T03:52:27.452Z,96408.88
2023-04-14T03:55:01.426Z,96413.80
2023-04-14T03:57:31.793Z,96407.61
2023-04-14T04:00:04.679Z,96407.50
2023-04-14T04:02:36.202Z,96410.09
2023-04-14T04:05:06.269Z,96408.67
2023-04-14T04:07:36.159Z,96410.23
2023-04-14T04:10:08.441Z,96374.23
2023-04-14T04:12:37.804Z,96392.70
2023-04-14T04:15:08.122Z,96395.27
2023-04-14T04:17:38.198Z,96394.63
2023-04-14T04:20:11.704Z,96383.64
2023-04-14T04:22:42.624Z,96384.30
2023-04-14T04:25:11.827Z,96374.42
2023-04-14T04:27:41.928Z,96372.20
2023-04-14T04:30:13.449Z,96368.88
2023-04-14T04:32:41.420Z,96370.69
2023-04-14T04:35:12.345Z,96365.56
2023-04-14T04:37:43.342Z,96362.25
2023-04-14T04:40:12.276Z,96356.35
2023-04-14T04:42:43.632Z,96359.50
2023-04-14T04:45:13.195Z,96365.50
2023-04-14T04:47:41.413Z,96365.89
2023-04-14T04:50:09.697Z,96367.67
2023-04-14T04:52:37.551Z,96357.58
2023-04-14T04:55:06.970Z,96352.37
2023-04-14T04:57:34.798Z,96349.62
2023-04-14T05:00:08.469Z,96347.34
2023-04-14T05:02:36.275Z,96348.78
2023-04-14T05:05:04.768Z,96347.48
2023-04-14T05:07:32.933Z,96348.88
2023-04-14T05:10:01.239Z,96348.00
2023-04-14T05:12:29.868Z,96353.67
2023-04-14T05:14:57.684Z,96345.19
2023-04-14T05:17:25.547Z,96336.09
2023-04-14T05:19:54.484Z,96349.66
2023-04-14T05:22:22.393Z,96341.23
2023-04-14T05:24:51.849Z,96345.66
2023-04-14T05:27:21.477Z,96349.58
2023-04-14T05:29:49.714Z,96347.19
2023-04-14T05:32:17.563Z,96338.11
2023-04-14T05:34:47.879Z,96339.22
2023-04-14T05:37:16.501Z,96348.61
2023-04-14T05:39:46.139Z,96347.92
2023-04-14T05:42:14.401Z,96346.20
2023-04-14T05:44:46.155Z,96344.71
2023-04-14T05:47:16.605Z,96344.91
2023-04-14T05:49:44.312Z,96347.78
2023-04-14T05:52:12.086Z,96347.52
2023-04-14T05:54:43.197Z,96346.04
2023-04-14T05:57:12.717Z,96341.13
2023-04-14T05:59:42.879Z,96343.10
2023-04-14T06:02:12.713Z,96338.16
2023-04-14T06:04:42.384Z,96335.64
2023-04-14T06:07:10.436Z,96326.72
2023-04-14T06:09:38.675Z,96318.08
2023-04-14T06:12:06.579Z,96310.98
2023-04-14T06:14:34.488Z,96307.70
2023-04-14T06:17:05.810Z,96305.17
2023-04-14T06:19:33.957Z,96305.36
2023-04-14T06:22:01.736Z,96298.58
2023-04-14T06:24:29.659Z,96292.20
2023-04-14T06:26:58.124Z,96283.88
2023-04-14T06:29:26.653Z,96276.51
2023-04-14T06:31:54.745Z,96278.82
2023-04-14T06:34:23.006Z,96276.11
2023-04-14T06:36:52.553Z,96274.97
2023-04-14T06:39:21.547Z,96284.46
2023-04-14T06:41:49.031Z,96284.06
2023-04-14T06:44:16.742Z,96297.94
2023-04-14T06:46:44.249Z,96293.30
2023-04-14T06:49:12.024Z,96290.52
2023-04-14T06:51:39.514Z,96285.27
2023-04-14T06:54:07.204Z,96276.69
2023-04-14T06:56:34.837Z,96275.09
2023-04-14T06:59:02.536Z,96276.41
2023-04-14T07:01:30.290Z,96280.21
2023-04-14T07:03:57.714Z,96271.90
2023-04-14T07:06:25.927Z,96279.06
2023-04-14T07:08:55.442Z,96282.56
2023-04-14T07:11:23.412Z,96271.97
2023-04-14T07:13:51.146Z,96267.59
2023-04-14T07:16:19.066Z,96260.47
2023-04-14T07:18:47.004Z,96252.00
2023-04-14T07:21:15.032Z,96255.51
2023-04-14T07:23:42.791Z,96248.16
2023-04-14T07:26:10.626Z,96242.93
2023-04-14T07:28:38.585Z,96243.52
2023-04-14T07:31:11.063Z,96233.27
2023-04-14T07:33:39.532Z,96231.14
2023-04-14T07:36:09.014Z,96228.28
2023-04-14T07:38:36.927Z,96218.78
2023-04-14T07:41:06.520Z,96226.33
2023-04-14T07:43:35.176Z,96235.05
2023-04-14T07:46:07.632Z,96230.77
2023-04-14T07:48:37.211Z,96227.86
2023-04-14T07:51:06.300Z,96220.70
2023-04-14T07:53:34.296Z,96221.66
2023-04-14T07:56:02.327Z,96215.05
2023-04-14T07:58:33.210Z,96215.46
2023-04-14T08:01:23.432Z,96214.88
2023-04-14T08:03:51.554Z,96222.42
2023-04-14T08:06:20.845Z,96225.13
2023-04-14T08:08:48.325Z,96223.00
2023-04-14T08:11:16.460Z,96213.50
2023-04-14T08:13:44.430Z,96213.89
2023-04-14T08:16:12.733Z,96211.52
2023-04-14T08:18:41.419Z,96214.50
2023-04-14T08:21:09.461Z,96209.39
2023-04-14T08:23:37.550Z,96200.65
2023-04-14T08:26:06.165Z,96193.52
2023-04-14T08:28:34.281Z,96193.00
2023-04-14T08:31:02.268Z,96188.97
2023-04-14T08:33:30.361Z,96188.73
2023-04-14T08:35:59.816Z,96180.83
2023-04-14T08:38:29.238Z,96176.83
2023-04-14T08:40:57.654Z,96175.16
2023-04-14T08:43:25.955Z,96170.22
2023-04-14T08:45:55.321Z,96163.06
2023-04-14T08:48:27.985Z,96157.27
2023-04-14T08:51:16.450Z,96155.55
2023-04-14T08:53:46.579Z,96148.86
2023-04-14T08:56:20.050Z,96150.83
2023-04-14T08:58:48.406Z,96147.78
2023-04-14T09:01:16.698Z,96142.47
2023-04-14T09:03:45.073Z,96144.84
2023-04-14T09:06:14.368Z,96149.52
2023-04-14T09:08:43.252Z,96145.70
2023-04-14T09:11:12.729Z,96149.12
2023-04-14T09:13:42.040Z,96144.80
2023-04-14T09:16:11.169Z,96139.73
2023-04-14T09:18:40.438Z,96126.94
2023-04-14T09:21:31.070Z,96123.72
2023-04-14T09:23:41.317Z,96112.58
2023-04-14T09:26:12.408Z,96118.62
2023-04-14T09:28:40.650Z,96111.73
2023-04-14T09:31:10.182Z,96109.81
2023-04-14T09:33:49.694Z,96109.14
2023-04-14T09:36:26.272Z,96108.80
2023-04-14T09:38:54.384Z,96108.23
2023-04-14T09:41:25.159Z,96100.08
2023-04-14T09:43:53.299Z,96091.42
2023-04-14T09:46:21.227Z,96092.52
2023-04-14T09:48:55.861Z,96096.25
2023-04-14T09:51:35.017Z,96093.96
2023-04-14T09:54:06.011Z,96079.91
2023-04-14T09:56:34.052Z,96080.40
2023-04-14T09:59:03.288Z,96073.44
2023-04-14T10:01:33.647Z,96067.78
2023-04-14T10:04:03.012Z,96069.88
2023-04-14T10:06:31.750Z,96064.71
2023-04-14T10:09:00.150Z,96057.81
2023-04-14T10:11:32.242Z,96057.52
2023-04-14T10:14:09.059Z,96057.07
2023-04-14T10:16:38.909Z,96053.56
2023-04-14T10:19:09.299Z,96050.38
2023-04-14T10:21:37.104Z,96048.05
2023-04-14T10:24:07.192Z,96051.00
2023-04-14T10:26:36.354Z,96047.48
2023-04-14T10:29:05.280Z,96044.33
2023-04-14T10:31:38.335Z,96030.24
2023-04-14T10:34:12.247Z,96037.86
2023-04-14T10:36:41.707Z,96030.34
2023-04-14T10:39:12.146Z,96025.66
2023-04-14T10:41:47.296Z,96020.67
2023-04-14T10:44:34.608Z,96019.80
2023-04-14T10:47:09.922Z,96011.09
2023-04-14T10:49:40.611Z,96014.63
2023-04-14T10:52:21.643Z,96017.10
2023-04-14T10:54:57.739Z,96015.52
2023-04-14T10:57:29.989Z,96018.48
2023-04-14T10:59:59.951Z,96023.52
2023-04-14T11:02:33.444Z,96023.13
2023-04-14T11:05:10.947Z,96037.61
2023-04-14T11:07:47.759Z,96033.56
2023-04-14T11:10:26.300Z,96029.08
2023-04-14T11:13:12.249Z,96031.38
2023-04-14T11:15:53.414Z,96034.88
2023-04-14T11:18:35.285Z,96043.39
2023-04-14T11:21:08.726Z,96041.23
2023-04-14T11:23:37.837Z,96045.31
2023-04-14T11:26:10.627Z,96042.50
2023-04-14T11:28:42.204Z,96048.28
2023-04-14T11:31:14.510Z,96060.58
2023-04-14T11:33:43.586Z,96049.83
2023-04-14T11:36:13.909Z,96046.06
2023-04-14T11:38:43.031Z,96042.95
2023-04-14T11:41:14.327Z,96046.44
2023-04-14T11:43:44.049Z,96049.83
2023-04-14T11:46:12.596Z,96048.52
2023-04-14T11:48:40.451Z,96048.78
2023-04-14T11:51:08.220Z,96052.46
2023-04-14T11:53:38.440Z,96046.45
2023-04-14T11:56:11.161Z,96048.78
2023-04-14T11:58:38.836Z,96046.14
2023-04-14T12:01:06.591Z,96046.98
2023-04-14T12:03:36.275Z,96047.84
2023-04-14T12:06:05.121Z,96049.37
2023-04-14T12:08:33.688Z,96044.14
2023-04-14T12:11:15.253Z,96039.44
2023-04-14T12:13:45.182Z,96033.65
2023-04-14T12:16:14.742Z,96036.02
2023-04-14T12:18:43.741Z,96032.45
2023-04-14T12:21:19.116Z,96033.62
2023-04-14T12:23:48.168Z,96028.67
2023-04-14T12:26:17.109Z,96029.92
2023-04-14T12:28:45.596Z,96024.54
2023-04-14T12:31:13.524Z,96027.33
2023-04-14T12:33:44.423Z,96021.77
2023-04-14T12:36:13.600Z,96026.03
2023-04-14T12:38:41.737Z,96029.27
2023-04-14T12:41:12.014Z,96025.90
2023-04-14T12:43:40.570Z,96021.95
2023-04-14T12:46:08.511Z,96020.41
2023-04-14T12:48:45.414Z,96025.25
2023-04-14T12:51:19.013Z,96013.58
2023-04-14T12:53:49.596Z,96019.95
2023-04-14T12:56:26.092Z,96021.63
2023-04-14T12:58:54.761Z,96022.55
2023-04-14T13:01:23.141Z,96021.49
2023-04-14T13:03:55.708Z,96012.58
2023-04-14T13:06:24.904Z,96013.58
2023-04-14T13:08:55.918Z,96013.48
2023-04-14T13:11:24.850Z,96016.44
2023-04-14T13:13:53.657Z,96015.67
2023-04-14T13:16:21.767Z,96014.70
2023-04-14T13:18:49.358Z,96011.75
2023-04-14T13:21:17.669Z,96009.02
2023-04-14T13:23:45.498Z,96008.62
2023-04-14T13:26:13.316Z,96016.80
2023-04-14T13:28:42.643Z,96008.25
2023-04-14T13:31:12.478Z,96013.34
2023-04-14T13:33:40.576Z,96011.48
2023-04-14T13:36:08.360Z,96015.44
2023-04-14T13:38:36.194Z,96017.46
2023-04-14T13:41:04.291Z,96015.23
2023-04-14T13:43:33.020Z,96015.69
2023-04-14T13:46:01.428Z,96011.33
2023-04-14T13:48:31.839Z,96012.98
2023-04-14T13:50:59.636Z,96019.15
2023-04-14T13:53:31.812Z,96018.47
2023-04-14T13:55:59.978Z,96021.08
2023-04-14T13:58:29.089Z,96022.93
2023-04-14T14:00:58.930Z,96024.41
2023-04-14T14:03:28.452Z,96031.88
2023-04-14T14:05:56.290Z,96035.05
2023-04-14T14:08:24.382Z,96027.32
2023-04-14T14:10:53.208Z,96029.90
2023-04-14T14:13:38.567Z,96030.92
2023-04-14T14:16:08.579Z,96019.70
2023-04-14T14:18:37.325Z,96022.85
2023-04-14T14:21:05.280Z,96018.22
2023-04-14T14:23:33.031Z,96025.62
2023-04-14T14:26:00.991Z,96021.59
2023-04-14T14:28:28.623Z,96031.34
2023-04-14T14:30:56.419Z,96034.12
2023-04-14T14:33:23.968Z,96036.47
2023-04-14T14:35:51.991Z,96026.98
2023-04-14T14:38:19.878Z,96028.39
2023-04-14T14:40:47.678Z,96019.88
2023-04-14T14:43:15.212Z,96025.55
2023-04-14T14:45:43.125Z,96028.69
2023-04-14T14:48:11.310Z,96032.41
2023-04-14T14:50:39.039Z,96033.22
2023-04-14T14:53:06.508Z,96036.95
2023-04-14T14:55:35.089Z,96043.38
2023-04-14T14:58:05.334Z,96044.58
2023-04-14T15:00:32.755Z,96048.45
2023-04-14T15:03:00.661Z,96048.70
2023-04-14T15:05:28.954Z,96048.92
2023-04-14T15:07:57.913Z,96044.97
2023-04-14T15:10:25.486Z,96064.74
2023-04-14T15:12:54.152Z,96065.73
2023-04-14T15:15:21.932Z,96082.47
2023-04-14T15:17:49.563Z,96083.50
2023-04-14T15:20:17.679Z,96088.21
2023-04-14T15:22:45.407Z,96093.34
2023-04-14T15:25:13.524Z,96111.11
2023-04-14T15:27:41.118Z,96117.04
2023-04-14T15:30:11.467Z,96131.33
2023-04-14T15:32:38.982Z,96139.25
2023-04-14T15:35:07.587Z,96143.86
2023-04-14T15:37:35.590Z,96159.48
2023-04-14T15:40:03.584Z,96161.16
2023-04-14T15:42:31.384Z,96184.84
2023-04-14T15:44:59.281Z,96199.84
2023-04-14T15:47:27.055Z,96218.73
2023-04-14T15:50:09.563Z,96228.63
2023-04-14T15:52:25.587Z,96244.88
2023-04-14T15:54:54.638Z,96240.80
2023-04-14T15:57:23.899Z,96248.12
2023-04-14T15:59:51.621Z,96250.55
2023-04-14T16:02:19.764Z,96251.05
2023-04-14T16:04:47.808Z,96253.81
2023-04-14T16:07:15.687Z,96256.66
2023-04-14T16:09:46.943Z,96262.20
2023-04-14T16:12:16.387Z,96267.30
2023-04-14T16:14:44.229Z,96285.03
2023-04-14T16:17:12.655Z,96285.34
2023-04-14T16:19:40.523Z,96300.89
2023-04-14T16:22:11.639Z,96303.34
2023-04-14T16:24:42.830Z,96309.84
2023-04-14T16:27:10.473Z,96314.77
2023-04-14T16:29:41.580Z,96314.70
2023-04-14T16:32:09.639Z,96317.72
2023-04-14T16:34:37.686Z,96322.50
2023-04-14T16:37:09.282Z,96318.95
2023-04-14T16:39:37.287Z,96326.22
2023-04-14T16:42:05.502Z,96335.98
2023-04-14T16:44:35.181Z,96348.67
2023-04-14T16:47:03.464Z,96356.50
2023-04-14T16:49:31.305Z,96362.59
2023-04-14T16:52:00.561Z,96367.23
2023-04-14T16:54:28.544Z,96365.70
2023-04-14T16:56:56.224Z,96374.23
2023-04-14T16:59:24.171Z,96372.33
2023-04-14T17:01:52.081Z,96378.53
2023-04-14T17:04:20.171Z,96384.60
2023-04-14T17:06:49.096Z,96384.34
2023-04-14T17:09:17.254Z,96389.31
2023-04-14T17:11:45.700Z,96387.77
2023-04-14T17:14:13.385Z,96393.73
2023-04-14T17:16:41.724Z,96402.59
2023-04-14T17:19:09.536Z,96408.63
2023-04-14T17:21:38.055Z,96407.91
2023-04-14T17:24:05.989Z,96411.00
2023-04-14T17:26:35.526Z,96420.24
2023-04-14T17:29:03.802Z,96418.32
2023-04-14T17:31:31.953Z,96414.27
2023-04-14T17:34:00.425Z,96418.52
2023-04-14T17:36:30.745Z,96430.12
2023-04-14T17:38:59.393Z,96433.99
2023-04-14T17:41:28.622Z,96433.99
2023-04-14T17:43:56.511Z,96435.20
2023-04-14T17:46:26.374Z,96440.45
2023-04-14T17:48:54.629Z,96429.48
2023-04-14T17:51:22.369Z,96434.67
2023-04-14T17:53:51.256Z,96452.02
2023-04-14T17:56:19.252Z,96466.08
2023-04-14T17:58:47.925Z,96477.28
2023-04-14T18:01:17.482Z,96475.93
2023-04-14T18:03:45.804Z,96471.53
2023-04-14T18:06:15.122Z,96480.20
2023-04-14T18:08:43.038Z,96488.50
2023-04-14T18:11:12.236Z,96482.33
2023-04-14T18:13:40.076Z,96477.28
2023-04-14T18:16:10.049Z,96487.30
2023-04-14T18:18:49.032Z,96494.81
2023-04-14T18:21:17.296Z,96499.64
2023-04-14T18:23:45.001Z,96502.91
2023-04-14T18:28:42.862Z,96514.85
2023-04-14T18:31:13.683Z,96515.36
2023-04-14T18:33:42.147Z,96526.81
2023-04-14T18:36:09.925Z,96523.34
2023-04-14T18:38:37.786Z,96524.43
2023-04-14T18:41:06.315Z,96511.02
2023-04-14T18:43:34.844Z,96507.62
2023-04-14T18:46:05.309Z,96504.08
2023-04-14T18:48:36.195Z,96508.83
2023-04-14T18:51:06.128Z,96514.36
2023-04-14T18:53:34.360Z,96505.43
2023-04-14T18:56:02.214Z,96505.16
2023-04-14T18:58:29.935Z,96503.54
2023-04-14T19:00:58.140Z,96500.52
2023-04-14T19:03:26.561Z,96495.63
2023-04-14T19:05:54.952Z,96493.43
2023-04-14T19:08:25.107Z,96506.27
2023-04-14T19:10:52.610Z,96515.13
2023-04-14T19:13:20.323Z,96507.61
2023-04-14T19:15:50.272Z,96500.30
2023-04-14T19:18:18.435Z,96483.99
2023-04-14T19:20:47.144Z,96463.78
2023-04-14T19:23:14.914Z,96478.11
2023-04-14T19:25:42.716Z,96473.70
2023-04-14T19:28:12.260Z,96467.55
2023-04-14T19:30:40.896Z,96474.33
2023-04-14T19:33:09.191Z,96488.30
2023-04-14T19:35:37.357Z,96499.53
2023-04-14T19:38:08.528Z,96504.30
2023-04-14T19:40:36.677Z,96505.20
2023-04-14T19:43:04.717Z,96500.02
2023-04-14T19:45:32.989Z,96503.85
2023-04-14T19:48:07.378Z,96499.69
2023-04-14T19:50:31.908Z,96495.00
2023-04-14T19:52:59.919Z,96491.30
2023-04-14T19:55:27.611Z,96487.75
2023-04-14T19:57:55.979Z,96485.63
2023-04-14T20:00:25.002Z,96479.67
2023-04-14T20:02:53.915Z,96474.44
2023-04-14T20:05:22.049Z,96485.67
2023-04-14T20:07:50.230Z,96479.64
2023-04-14T20:10:21.568Z,96477.52
2023-04-14T20:12:51.856Z,96483.83
2023-04-14T20:15:19.826Z,96486.86
2023-04-14T20:17:48.420Z,96496.64
2023-04-14T20:20:16.540Z,96500.67
2023-04-14T20:22:45.089Z,96517.60
2023-04-14T20:25:12.871Z,96516.70
2023-04-14T20:27:40.857Z,96511.36
2023-04-14T20:30:11.235Z,96511.93
2023-04-14T20:32:39.417Z,96519.56
2023-04-14T20:35:07.997Z,96530.77
2023-04-14T20:37:35.970Z,96536.15
2023-04-14T20:40:04.750Z,96541.30
2023-04-14T20:42:32.908Z,96540.31
2023-04-14T20:45:01.324Z,96531.46
2023-04-14T20:47:29.076Z,96537.53
2023-04-14T20:49:57.506Z,96558.77
2023-04-14T20:52:27.356Z,96552.41
2023-04-14T20:54:55.815Z,96546.31
2023-04-14T20:57:23.714Z,96542.88
2023-04-14T20:59:54.489Z,96541.20
2023-04-14T21:02:22.599Z,96537.97
2023-04-14T21:04:50.912Z,96541.20
2023-04-14T21:07:18.957Z,96530.59
2023-04-14T21:09:46.914Z,96528.47
2023-04-14T21:12:16.650Z,96507.85
2023-04-14T21:15:42.434Z,96506.42
2023-04-14T21:17:15.386Z,96510.16
2023-04-14T21:19:43.460Z,96519.48
2023-04-14T21:22:12.098Z,96522.49
2023-04-14T21:24:41.963Z,96529.69
2023-04-14T21:27:09.832Z,96522.78
2023-04-14T21:29:38.060Z,96525.94
2023-04-14T21:32:06.479Z,96528.89
2023-04-14T21:34:35.368Z,96529.33
2023-04-14T21:37:04.500Z,96537.77
2023-04-14T21:39:33.384Z,96538.45
2023-04-14T21:42:03.154Z,96545.98
2023-04-14T21:44:33.451Z,96553.17
2023-04-14T21:47:01.383Z,96556.08
2023-04-14T21:49:29.244Z,96546.37
2023-04-14T21:51:57.132Z,96543.58
2023-04-14T21:54:25.026Z,96537.65
2023-04-14T21:56:53.358Z,96541.93
2023-04-14T21:59:21.555Z,96537.23
2023-04-14T22:01:49.605Z,96536.56
2023-04-14T22:04:28.713Z,96540.95
2023-04-14T22:06:48.229Z,96536.25
2023-04-14T22:09:16.104Z,96531.20
2023-04-14T22:11:44.307Z,96538.27
2023-04-14T22:14:13.047Z,96527.64
2023-04-14T22:16:41.136Z,96534.56
2023-04-14T22:19:09.967Z,96537.81
2023-04-14T22:21:37.802Z,96540.50
2023-04-14T22:24:06.636Z,96541.06
2023-04-14T22:26:34.422Z,96539.72
2023-04-14T22:29:05.165Z,96543.42
2023-04-14T22:31:32.934Z,96546.01
2023-04-14T22:34:00.547Z,96544.66
2023-04-14T22:36:29.048Z,96536.72
2023-04-14T22:38:56.520Z,96541.88
2023-04-14T22:41:24.669Z,96537.61
2023-04-14T22:43:52.292Z,96538.17
2023-04-14T22:46:20.237Z,96532.94
2023-04-14T22:48:47.949Z,96534.81
2023-04-14T22:51:16.224Z,96527.46
2023-04-14T22:53:43.899Z,96525.45
2023-04-14T22:56:11.711Z,96524.56
2023-04-14T22:58:39.618Z,96530.36
2023-04-14T23:01:19.101Z,96535.41
2023-04-14T23:03:37.974Z,96538.08
2023-04-14T23:06:06.675Z,96547.50
2023-04-14T23:08:34.487Z,96546.36
2023-04-14T23:11:02.098Z,96544.48
2023-04-14T23:13:29.967Z,96548.14
2023-04-14T23:15:57.991Z,96549.72
2023-04-14T23:18:27.317Z,96555.84
2023-04-14T23:20:55.054Z,96551.49
2023-04-14T23:23:22.869Z,96551.47
2023-04-14T23:25:50.830Z,96554.91
2023-04-14T23:28:18.441Z,96548.91
2023-04-14T23:30:46.252Z,96552.56
2023-04-14T23:33:14.887Z,96549.52
2023-04-14T23:35:42.869Z,96556.09
2023-04-14T23:38:10.672Z,96550.95
2023-04-14T23:40:38.311Z,96546.78
2023-04-14T23:43:06.068Z,96547.57
2023-04-14T23:45:35.761Z,96550.78
2023-04-14T23:48:05.494Z,96547.77
2023-04-14T23:51:02.914Z,96551.97
2023-04-14T23:53:03.435Z,96546.27
2023-04-14T23:55:31.320Z,96552.06
